createdAt,value
2019-05-11T00:04:00.145Z,78.37
2019-05-11T00:08:06.011Z,79.79
2019-05-11T00:12:10.912Z,80.55
2019-05-11T00:16:18.941Z,81.34
2019-05-11T00:20:22.393Z,81.40
2019-05-11T00:24:29.601Z,81.55
2019-05-11T00:28:33.882Z,81.63
2019-05-11T00:32:38.787Z,80.53
2019-05-11T00:36:43.675Z,80.01
2019-05-11T00:40:49.543Z,80.16
2019-05-11T00:44:54.436Z,79.96
2019-05-11T00:48:59.328Z,80.16
2019-05-11T00:53:04.243Z,79.93
2019-05-11T00:57:09.129Z,80.79
2019-05-11T01:01:14.024Z,80.64
2019-05-11T01:05:18.912Z,80.53
2019-05-11T01:09:23.800Z,81.78
2019-05-11T01:13:28.704Z,81.96
2019-05-11T01:17:33.596Z,82.20
2019-05-11T01:21:38.487Z,83.05
2019-05-11T01:25:43.381Z,83.65
2019-05-11T01:29:48.280Z,84.53
2019-05-11T01:33:53.172Z,84.66
2019-05-11T01:37:58.071Z,85.17
2019-05-11T01:42:02.950Z,85.42
2019-05-11T01:46:07.844Z,84.66
2019-05-11T01:50:12.886Z,84.91
2019-05-11T01:54:17.777Z,84.81
2019-05-11T01:58:22.675Z,84.32
2019-05-11T02:02:27.580Z,84.56
2019-05-11T02:06:32.462Z,84.69
2019-05-11T02:10:37.353Z,84.24
2019-05-11T02:14:42.250Z,84.18
2019-05-11T02:18:47.146Z,84.71
2019-05-11T02:22:52.047Z,83.92
2019-05-11T02:26:56.935Z,85.14
2019-05-11T02:31:01.834Z,86.39
2019-05-11T02:35:07.771Z,88.88
2019-05-11T02:39:12.669Z,91.00
2019-05-11T02:43:17.554Z,92.63
2019-05-11T02:47:22.444Z,93.30
2019-05-11T02:51:29.941Z,93.91
2019-05-11T02:55:36.275Z,94.84
2019-05-11T02:59:41.159Z,95.00
2019-05-11T03:03:46.043Z,94.79
2019-05-11T03:07:50.928Z,95.05
2019-05-11T03:11:56.556Z,95.01
2019-05-11T03:16:01.584Z,94.95
2019-05-11T03:20:07.304Z,95.69
2019-05-11T03:24:12.187Z,96.56
2019-05-11T03:28:17.070Z,97.16
2019-05-11T03:32:21.976Z,98.60
2019-05-11T03:36:26.846Z,99.07
2019-05-11T03:40:31.732Z,100.00
2019-05-11T03:44:36.627Z,100.00
2019-05-11T03:48:41.513Z,100.00
2019-05-11T03:52:46.400Z,100.00
2019-05-11T03:56:51.299Z,100.00
2019-05-11T04:00:56.198Z,100.00
2019-05-11T04:05:01.097Z,100.00
2019-05-11T04:09:07.164Z,100.00
2019-05-11T04:13:12.034Z,100.00
2019-05-11T04:17:16.999Z,100.00
2019-05-11T04:21:21.885Z,100.00
2019-05-11T04:25:26.785Z,100.00
2019-05-11T04:29:31.675Z,100.00
2019-05-11T04:33:36.574Z,100.00
2019-05-11T04:37:41.491Z,100.00
2019-05-11T04:41:46.505Z,100.00
2019-05-11T04:45:51.870Z,100.00
2019-05-11T04:49:56.754Z,100.00
2019-05-11T04:54:01.651Z,100.00
2019-05-11T04:58:07.524Z,100.00
2019-05-11T05:02:12.417Z,100.00
2019-05-11T05:06:24.826Z,100.00
2019-05-11T05:10:23.909Z,100.00
2019-05-11T05:14:28.805Z,100.00
2019-05-11T05:18:33.712Z,100.00
2019-05-11T05:22:38.603Z,100.00
2019-05-11T05:26:43.499Z,100.00
2019-05-11T05:30:48.388Z,100.00
2019-05-11T05:34:53.280Z,100.00
2019-05-11T05:38:58.177Z,100.00
2019-05-11T05:43:03.083Z,100.00
2019-05-11T05:47:07.969Z,100.00
2019-05-11T05:51:12.855Z,100.00
2019-05-11T05:55:17.745Z,100.00
2019-05-11T05:59:22.705Z,100.00
2019-05-11T06:03:27.548Z,100.00
2019-05-11T06:07:32.450Z,100.00
2019-05-11T06:11:37.345Z,100.00
2019-05-11T06:15:42.239Z,100.00
2019-05-11T06:19:47.176Z,100.00
2019-05-11T06:23:52.084Z,100.00
2019-05-11T06:27:57.047Z,100.00
2019-05-11T06:32:01.939Z,100.00
2019-05-11T06:36:06.841Z,100.00
2019-05-11T06:40:12.381Z,100.00
2019-05-11T06:44:17.275Z,100.00
2019-05-11T06:48:22.186Z,100.00
2019-05-11T06:52:27.239Z,100.00
2019-05-11T06:56:32.133Z,100.00
2019-05-11T07:00:37.029Z,100.00
2019-05-11T07:04:41.931Z,100.00
2019-05-11T07:08:46.825Z,100.00
2019-05-11T07:12:51.720Z,100.00
2019-05-11T07:16:56.625Z,100.00
2019-05-11T07:21:01.515Z,100.00
2019-05-11T07:25:07.457Z,100.00
2019-05-11T07:29:13.427Z,100.00
2019-05-11T07:33:18.427Z,100.00
2019-05-11T07:37:24.410Z,100.00
2019-05-11T07:41:29.477Z,100.00
2019-05-11T07:45:34.451Z,100.00
2019-05-11T07:49:39.348Z,100.00
2019-05-11T07:53:44.246Z,100.00
2019-05-11T07:57:49.153Z,100.00
2019-05-11T08:01:54.063Z,100.00
2019-05-11T08:06:02.493Z,100.00
2019-05-11T08:10:08.250Z,100.00
2019-05-11T08:14:13.360Z,100.00
2019-05-11T08:18:18.883Z,100.00
2019-05-11T08:22:23.920Z,100.00
2019-05-11T08:26:28.884Z,100.00
2019-05-11T08:30:33.803Z,100.00
2019-05-11T08:34:39.758Z,100.00
2019-05-11T08:38:44.780Z,100.00
2019-05-11T08:42:49.681Z,100.00
2019-05-11T08:46:54.573Z,100.00
2019-05-11T08:51:00.249Z,100.00
2019-05-11T08:55:08.388Z,100.00
2019-05-11T08:59:12.777Z,100.00
2019-05-11T09:03:17.953Z,100.00
2019-05-11T09:07:22.948Z,100.00
2019-05-11T09:11:28.474Z,100.00
2019-05-11T09:15:37.348Z,100.00
2019-05-11T09:19:40.022Z,100.00
2019-05-11T09:23:44.926Z,100.00
2019-05-11T09:27:49.823Z,100.00
2019-05-11T09:31:54.730Z,100.00
2019-05-11T09:35:59.613Z,100.00
2019-05-11T09:40:07.779Z,100.00
2019-05-11T09:44:12.232Z,100.00
2019-05-11T09:48:17.996Z,100.00
2019-05-11T09:52:23.114Z,100.00
2019-05-11T09:56:28.793Z,100.00
2019-05-11T10:00:34.059Z,100.00
2019-05-11T10:04:38.963Z,100.00
2019-05-11T10:08:43.863Z,100.00
2019-05-11T10:12:52.325Z,100.00
2019-05-11T10:16:55.373Z,100.00
2019-05-11T10:21:00.274Z,99.31
2019-05-11T10:25:08.918Z,99.71
2019-05-11T10:29:13.800Z,100.00
2019-05-11T10:33:18.989Z,99.66
2019-05-11T10:37:23.976Z,97.54
2019-05-11T10:41:28.859Z,95.93
2019-05-11T10:45:33.829Z,96.83
2019-05-11T10:49:38.722Z,95.66
2019-05-11T10:53:43.622Z,97.12
2019-05-11T10:57:48.875Z,93.65
2019-05-11T11:01:53.781Z,93.44
2019-05-11T11:05:58.677Z,92.35
2019-05-11T11:10:03.720Z,92.06
2019-05-11T11:14:08.835Z,93.77
2019-05-11T11:18:13.803Z,92.50
2019-05-11T11:22:35.982Z,88.96
2019-05-11T11:26:25.277Z,89.19
2019-05-11T11:30:30.175Z,88.02
2019-05-11T11:34:35.078Z,87.51
2019-05-11T11:38:39.974Z,87.46
2019-05-11T11:42:44.865Z,87.31
2019-05-11T11:46:54.939Z,85.45
2019-05-11T11:50:58.371Z,85.75
2019-05-11T11:55:04.104Z,84.91
2019-05-11T11:59:09.000Z,85.56
2019-05-11T12:03:13.906Z,86.37
2019-05-11T12:07:18.795Z,85.78
2019-05-11T12:11:23.699Z,84.30
2019-05-11T12:15:28.604Z,82.88
2019-05-11T12:19:33.527Z,80.96
2019-05-11T12:23:38.438Z,82.60
2019-05-11T12:27:43.383Z,81.98
2019-05-11T12:31:49.367Z,80.79
2019-05-11T12:35:54.261Z,81.35
2019-05-11T12:39:59.158Z,82.26
2019-05-11T12:44:04.057Z,81.63
2019-05-11T12:48:09.139Z,81.40
2019-05-11T12:52:14.028Z,80.13
2019-05-11T12:56:19.207Z,79.70
2019-05-11T13:00:30.625Z,80.72
2019-05-11T13:04:33.357Z,81.25
2019-05-11T13:08:38.897Z,79.21
2019-05-11T13:12:43.897Z,79.45
2019-05-11T13:16:48.969Z,80.07
2019-05-11T13:20:53.871Z,81.48
2019-05-11T13:24:58.956Z,79.86
2019-05-11T13:29:04.896Z,81.39
2019-05-11T13:33:09.819Z,79.71
2019-05-11T13:37:14.777Z,80.43
2019-05-11T13:41:19.681Z,80.15
2019-05-11T13:45:24.579Z,80.83
2019-05-11T13:49:32.378Z,78.42
2019-05-11T13:53:37.680Z,77.66
2019-05-11T13:57:42.807Z,78.32
2019-05-11T14:01:48.006Z,79.74
2019-05-11T14:05:52.982Z,78.90
2019-05-11T14:09:58.815Z,80.00
2019-05-11T14:14:04.012Z,79.58
2019-05-11T14:18:11.869Z,79.66
2019-05-11T14:22:17.875Z,78.93
2019-05-11T14:26:22.934Z,79.71
2019-05-11T14:30:28.211Z,80.20
2019-05-11T14:34:33.193Z,82.61
2019-05-11T14:38:38.286Z,83.67
2019-05-11T14:42:43.264Z,84.12
2019-05-11T14:46:48.157Z,85.79
2019-05-11T14:50:53.046Z,85.65
2019-05-11T14:54:58.581Z,85.21
2019-05-11T14:59:03.515Z,84.86
2019-05-11T15:03:08.411Z,85.27
2019-05-11T15:07:13.307Z,84.93
2019-05-11T15:11:19.112Z,85.58
2019-05-11T15:15:24.267Z,85.82
2019-05-11T15:19:29.169Z,85.00
2019-05-11T15:23:34.071Z,84.22
2019-05-11T15:27:38.970Z,84.06
2019-05-11T15:31:43.854Z,85.07
2019-05-11T15:35:48.757Z,84.86
2019-05-11T15:39:55.300Z,84.62
2019-05-11T15:44:00.197Z,86.21
2019-05-11T15:48:05.248Z,84.95
2019-05-11T15:52:10.134Z,85.17
2019-05-11T15:56:15.038Z,86.10
2019-05-11T16:00:20.371Z,86.14
2019-05-11T16:04:25.276Z,86.64
2019-05-11T16:08:31.141Z,87.00
2019-05-11T16:12:36.031Z,87.28
2019-05-11T16:16:40.935Z,86.68
2019-05-11T16:20:49.813Z,86.53
2019-05-11T16:24:52.439Z,86.40
2019-05-11T16:28:58.152Z,87.68
2019-05-11T16:33:03.212Z,87.47
2019-05-11T16:37:10.112Z,88.37
2019-05-11T16:41:14.699Z,88.81
2019-05-11T16:45:23.742Z,89.49
2019-05-11T16:49:32.070Z,90.08
2019-05-11T16:53:35.294Z,91.03
2019-05-11T16:57:40.475Z,91.99
2019-05-11T17:01:45.365Z,92.59
2019-05-11T17:05:50.273Z,91.49
2019-05-11T17:09:57.363Z,91.11
2019-05-11T17:14:01.949Z,92.55
2019-05-11T17:18:08.144Z,91.57
2019-05-11T17:22:13.090Z,91.07
2019-05-11T17:26:21.137Z,90.52
2019-05-11T17:30:28.650Z,91.48
2019-05-11T17:34:38.116Z,90.99
2019-05-11T17:38:43.388Z,90.60
2019-05-11T17:42:54.151Z,90.87
2019-05-11T17:47:00.201Z,89.41
2019-05-11T17:51:18.345Z,88.64
2019-05-11T17:55:11.753Z,87.89
2019-05-11T17:59:16.640Z,87.20
2019-05-11T18:03:21.534Z,86.78
2019-05-11T18:07:30.305Z,87.11
2019-05-11T18:11:33.036Z,87.22
2019-05-11T18:15:38.201Z,88.18
2019-05-11T18:19:43.177Z,88.11
2019-05-11T18:23:48.208Z,88.07
2019-05-11T18:27:53.021Z,87.98
2019-05-11T18:31:58.049Z,88.27
2019-05-11T18:36:02.861Z,88.03
2019-05-11T18:40:08.496Z,88.21
2019-05-11T18:44:13.380Z,87.93
2019-05-11T18:48:18.657Z,88.60
2019-05-11T18:52:23.735Z,87.40
2019-05-11T18:56:28.698Z,87.05
2019-05-11T19:00:33.518Z,87.24
2019-05-11T19:04:38.413Z,87.28
2019-05-11T19:08:43.314Z,87.46
2019-05-11T19:12:48.912Z,87.84
2019-05-11T19:16:54.926Z,87.89
2019-05-11T19:20:59.820Z,88.19
2019-05-11T19:25:08.763Z,88.25
2019-05-11T19:29:13.040Z,88.86
2019-05-11T19:33:18.957Z,88.97
2019-05-11T19:37:24.097Z,89.34
2019-05-11T19:41:28.978Z,89.74
2019-05-11T19:45:33.871Z,90.21
2019-05-11T19:49:38.759Z,90.50
2019-05-11T19:53:44.725Z,90.99
2019-05-11T19:57:49.599Z,91.31
2019-05-11T20:01:57.329Z,91.61
2019-05-11T20:06:01.092Z,92.03
2019-05-11T20:10:07.918Z,92.60
2019-05-11T20:14:12.878Z,93.23
2019-05-11T20:18:18.419Z,93.71
2019-05-11T20:22:23.432Z,94.12
2019-05-11T20:26:28.697Z,94.38
2019-05-11T20:30:34.554Z,94.80
2019-05-11T20:34:39.451Z,94.89
2019-05-11T20:38:44.332Z,95.19
2019-05-11T20:42:49.231Z,95.24
2019-05-11T20:46:54.117Z,95.51
2019-05-11T20:50:59.008Z,94.94
2019-05-11T20:55:04.739Z,95.57
2019-05-11T20:59:09.699Z,95.97
2019-05-11T21:03:14.582Z,96.83
2019-05-11T21:07:20.049Z,98.18
2019-05-11T21:11:25.044Z,96.84
2019-05-11T21:15:29.930Z,96.05
2019-05-11T21:19:34.817Z,96.20
2019-05-11T21:23:40.723Z,96.97
2019-05-11T21:27:45.769Z,97.21
2019-05-11T21:31:50.649Z,97.43
2019-05-11T21:35:58.089Z,97.59
2019-05-11T21:40:02.137Z,98.21
2019-05-11T21:44:08.303Z,98.16
2019-05-11T21:48:13.382Z,97.87
2019-05-11T21:52:18.338Z,98.45
2019-05-11T21:56:23.232Z,98.65
2019-05-11T22:00:30.537Z,99.03
2019-05-11T22:04:38.859Z,99.29
2019-05-11T22:08:43.779Z,99.19
2019-05-11T22:12:49.087Z,99.23
2019-05-11T22:16:54.027Z,99.29
2019-05-11T22:20:58.907Z,99.13
2019-05-11T22:25:07.731Z,99.33
2019-05-11T22:29:12.313Z,99.31
2019-05-11T22:33:17.733Z,99.21
2019-05-11T22:37:22.667Z,99.25
2019-05-11T22:41:27.554Z,99.09
2019-05-11T22:45:32.430Z,99.07
2019-05-11T22:49:37.319Z,98.96
2019-05-11T22:53:46.746Z,99.05
2019-05-11T22:57:48.922Z,99.20
2019-05-11T23:01:53.745Z,98.73
2019-05-11T23:05:58.630Z,98.60
2019-05-11T23:10:04.958Z,98.60
2019-05-11T23:14:10.291Z,98.57
2019-05-11T23:18:18.054Z,98.61
2019-05-11T23:22:22.772Z,98.58
2019-05-11T23:26:28.158Z,98.39
2019-05-11T23:30:33.214Z,98.31
2019-05-11T23:34:38.742Z,97.25
2019-05-11T23:38:43.771Z,97.26
2019-05-11T23:42:49.392Z,98.13
2019-05-11T23:46:54.397Z,98.35
2019-05-11T23:50:59.280Z,98.32
2019-05-11T23:55:08.225Z,98.14
2019-05-11T23:59:13.618Z,97.89
